Montebello, Virginia
Current Conditions -  °F | °C
As of 11:15 AM on Friday 21 Nov 2014 (Local Time) from KW13 Reporting Station
Clear Clear  
Wind Chill: 24°   Ceiling: Unl
Heat Index: 32°   Visibility: 10mi
Dew Point:   Wind: 9mph
Humidity: 29%   Direction: 320°NW
Pressure: 30.38"   Gusts: NA
Location:  37.86°N, 79.14°W
Report Text: KW13 211615Z AUTO 32008KT 250V340 10SM CLR 00/M16 A3038 RMK AO1 T00011161
Loading
Personal Weather Stations






























Interactive Weather Map New forecast layout! Learn more

10-Day Weather Forecast

Advertisements
Track Severe Weather on mobile